Time;durP1;ratioP1;P1;durP2;ratioP2;P2;SDS_P1;SDS_P2;PMS_P1;PMS_P2;Temp;Humidity;BMP_temperature;BMP_pressure;BME280_temperature;BME280_humidity;BME280_pressure;Samples;Min_cycle;Max_cycle;Signal;HPM_P1;HPM_P2
2021/08/24 00:01:18;;;;;;;7.83;5.47;;;;;;;15.61;100.00;101016.27;1640360;85;25822;-79
2021/08/24 00:03:45;;;;;;;8.75;5.75;;;;;;;15.60;100.00;101012.44;1618474;85;25950;-78
2021/08/24 00:06:12;;;;;;;7.72;5.60;;;;;;;15.59;100.00;101013.49;1638928;85;25930;-79
2021/08/24 00:08:41;;;;;;;6.80;5.80;;;;;;;15.55;100.00;101009.01;1635691;85;28266;-79
2021/08/24 00:11:11;;;;;;;6.97;5.33;;;;;;;15.54;100.00;101014.11;1666937;85;25808;-78
2021/08/24 00:13:38;;;;;;;7.60;5.25;;;;;;;15.56;100.00;101012.55;1632792;84;25908;-78
2021/08/24 00:16:06;;;;;;;10.45;5.25;;;;;;;15.54;100.00;101008.72;1618103;85;25832;-79
2021/08/24 00:18:33;;;;;;;8.38;5.85;;;;;;;15.51;100.00;101009.12;1637060;84;26235;-79
2021/08/24 00:21:01;;;;;;;8.10;5.70;;;;;;;15.48;100.00;101009.55;1663226;85;27555;-79
2021/08/24 00:23:30;;;;;;;12.15;6.53;;;;;;;15.44;100.00;101006.94;1613887;84;25918;-78
2021/08/24 00:25:58;;;;;;;7.90;5.67;;;;;;;15.43;100.00;101013.39;1639270;86;25792;-79
2021/08/24 00:28:27;;;;;;;7.60;5.78;;;;;;;15.43;100.00;101008.83;1637053;84;26344;-78
2021/08/24 00:30:54;;;;;;;8.35;5.30;;;;;;;15.44;100.00;101009.63;1665329;85;25929;-79
2021/08/24 00:33:23;;;;;;;7.97;5.85;;;;;;;15.42;100.00;101008.98;1610712;85;27296;-79
2021/08/24 00:35:50;;;;;;;6.55;5.75;;;;;;;15.41;100.00;101010.88;1623700;85;25919;-78
2021/08/24 00:38:22;;;;;;;10.43;6.12;;;;;;;15.40;100.00;101013.76;1638985;84;25790;-79
2021/08/24 00:41:02;;;;;;;7.65;6.03;;;;;;;15.38;100.00;101013.98;1660549;85;26111;-78
2021/08/24 00:43:33;;;;;;;12.47;5.92;;;;;;;15.36;100.00;101004.42;1616993;85;25935;-78
2021/08/24 00:46:20;;;;;;;;;;;;;;;15.34;100.00;101005.14;1625906;85;27501;-79
2021/08/24 00:48:48;;;;;;;6.53;5.05;;;;;;;15.30;100.00;101011.49;1652576;84;25946;-78
2021/08/24 00:51:19;;;;;;;7.40;6.05;;;;;;;15.26;100.00;101012.11;1613043;85;25867;-78
2021/08/24 00:53:47;;;;;;;;;;;;;;;15.25;100.00;101011.78;1615307;85;25796;-78
2021/08/24 00:56:14;;;;;;;7.80;5.50;;;;;;;15.24;100.00;101011.48;1667809;85;26256;-79
2021/08/24 00:58:41;;;;;;;11.75;5.97;;;;;;;15.23;100.00;101014.70;1660972;85;27547;-78
2021/08/24 01:01:09;;;;;;;6.28;5.20;;;;;;;15.23;100.00;101017.91;1598342;85;26254;-78
2021/08/24 01:03:41;;;;;;;7.55;5.85;;;;;;;15.22;100.00;101020.31;1608139;84;26452;-79
2021/08/24 01:06:33;;;;;;;10.10;6.05;;;;;;;15.23;100.00;101022.80;1633692;85;25947;-79
2021/08/24 01:09:14;;;;;;;10.03;6.37;;;;;;;15.23;100.00;101023.30;1664878;84;25783;-78
2021/08/24 01:11:56;;;;;;;7.37;5.97;;;;;;;15.22;100.00;101025.20;1639560;85;28078;-78
2021/08/24 01:14:37;;;;;;;9.08;5.90;;;;;;;15.19;100.00;101025.59;1664391;85;25746;-78
2021/08/24 01:17:22;;;;;;;10.23;6.08;;;;;;;15.19;100.00;101024.75;1666287;85;25842;-78
2021/08/24 01:20:19;;;;;;;8.88;6.03;;;;;;;15.17;100.00;101024.97;1649444;86;26380;-78
2021/08/24 01:23:41;;;;;;;10.72;5.83;;;;;;;15.16;100.00;101027.34;1654439;84;25829;-78
2021/08/24 01:26:44;;;;;;;5.75;5.10;;;;;;;15.17;100.00;101036.28;1689743;83;27634;-78
2021/08/24 01:29:53;;;;;;;7.85;5.40;;;;;;;15.14;100.00;101033.47;1670529;84;25912;-78
2021/08/24 01:32:47;;;;;;;8.20;5.08;;;;;;;15.13;100.00;101031.83;1681236;84;25747;-78
2021/08/24 01:35:55;;;;;;;8.28;5.87;;;;;;;15.12;100.00;101023.40;1659235;84;26619;-78
2021/08/24 01:38:29;;;;;;;10.88;5.62;;;;;;;15.13;100.00;101019.68;1665259;85;26552;-78
2021/08/24 01:41:23;;;;;;;7.45;5.10;;;;;;;15.11;100.00;101023.61;1627786;85;27482;-78
2021/08/24 01:44:14;;;;;;;7.42;5.30;;;;;;;15.09;100.00;101019.78;1653707;85;25828;-78
2021/08/24 01:46:52;;;;;;;10.28;5.47;;;;;;;15.10;100.00;101025.98;1650432;85;25794;-77
2021/08/24 01:49:24;;;;;;;10.03;5.60;;;;;;;15.09;100.00;101023.83;1667072;84;25880;-78
2021/08/24 01:51:55;;;;;;;5.28;4.55;;;;;;;15.09;100.00;101015.73;1667998;85;25756;-79
2021/08/24 01:54:26;;;;;;;9.08;5.50;;;;;;;15.09;100.00;101021.13;1658888;85;27461;-77
2021/08/24 01:56:56;;;;;;;6.80;5.45;;;;;;;15.09;100.00;101017.08;1631486;85;25559;-79
2021/08/24 01:59:40;;;;;;;7.62;5.30;;;;;;;15.10;100.00;101019.23;1640339;85;25765;-78
2021/08/24 02:02:26;;;;;;;7.75;5.00;;;;;;;15.10;100.00;101023.29;1637134;85;25847;-79
2021/08/24 02:05:01;;;;;;;7.72;5.70;;;;;;;15.10;100.00;101020.08;1659849;85;25913;-79
2021/08/24 02:07:31;;;;;;;6.65;5.40;;;;;;;15.10;100.00;101019.23;1613575;84;27366;-78
2021/08/24 02:10:08;;;;;;;;;;;;;;;15.11;100.00;101020.92;1645991;85;26117;-78
2021/08/24 02:12:38;;;;;;;6.97;5.05;;;;;;;15.08;100.00;101011.36;1668217;85;25896;-79
2021/08/24 02:15:07;;;;;;;11.78;5.20;;;;;;;15.06;100.00;101013.95;1664103;85;25819;-79
2021/08/24 02:17:35;;;;;;;9.38;5.40;;;;;;;15.07;100.00;101010.23;1618063;85;25907;-78
2021/08/24 02:20:11;;;;;;;5.40;4.90;;;;;;;15.05;100.00;101014.48;1638449;85;27645;-78
2021/08/24 02:22:42;;;;;;;7.03;5.35;;;;;;;15.04;100.00;101015.52;1661418;85;25757;-79
2021/08/24 02:25:20;;;;;;;6.62;5.15;;;;;;;15.02;100.00;101017.58;1640789;85;26601;-78
2021/08/24 02:27:52;;;;;;;10.75;5.22;;;;;;;15.03;100.00;101022.47;1661566;85;25845;-79
2021/08/24 02:30:19;;;;;;;13.18;5.53;;;;;;;15.02;100.00;101022.98;1639089;85;25941;-78
2021/08/24 02:32:50;;;;;;;5.92;5.33;;;;;;;15.01;100.00;101019.15;1663072;85;28165;-78
2021/08/24 02:35:34;;;;;;;5.50;4.80;;;;;;;14.99;100.00;101026.62;1657910;85;25875;-78
2021/08/24 02:38:16;;;;;;;9.10;5.28;;;;;;;14.97;100.00;101026.80;1645651;85;26544;-78
2021/08/24 02:40:58;;;;;;;12.63;5.17;;;;;;;14.95;100.00;101023.48;1634712;85;26740;-78
2021/08/24 02:43:57;;;;;;;5.95;4.80;;;;;;;14.93;100.00;101027.41;1661176;85;25903;-79
2021/08/24 02:46:32;;;;;;;5.42;4.87;;;;;;;14.93;100.00;101027.41;1637112;85;27354;-78
2021/08/24 02:49:17;;;;;;;8.68;4.90;;;;;;;14.90;100.00;101025.14;1646298;85;26546;-78
2021/08/24 02:51:48;;;;;;;6.50;5.20;;;;;;;14.91;100.00;101024.09;1642326;86;26034;-78
2021/08/24 02:54:26;;;;;;;6.37;5.60;;;;;;;14.92;100.00;101030.65;1634928;85;25946;-79
2021/08/24 02:56:54;;;;;;;7.50;5.28;;;;;;;14.92;100.00;101030.65;1661480;85;25983;-78
2021/08/24 02:59:23;;;;;;;12.37;5.70;;;;;;;14.93;100.00;101036.34;1601151;85;28263;-78
2021/08/24 03:01:50;;;;;;;9.33;5.90;;;;;;;14.92;100.00;101030.65;1632535;85;25866;-79
2021/08/24 03:04:17;;;;;;;9.93;5.90;;;;;;;14.92;100.00;101033.34;1629073;85;25818;-78
2021/08/24 03:06:52;;;;;;;9.50;6.53;;;;;;;14.92;100.00;101029.81;1637969;85;25812;-78
2021/08/24 03:09:23;;;;;;;9.38;5.92;;;;;;;14.91;100.00;101023.58;1623453;85;25994;-78
2021/08/24 03:12:11;;;;;;;10.50;6.60;;;;;;;14.89;100.00;101024.81;1616397;85;27428;-79
2021/08/24 03:14:59;;;;;;;9.03;6.80;;;;;;;14.88;100.00;101028.56;1666831;85;26493;-78
2021/08/24 03:17:47;;;;;;;7.55;6.60;;;;;;;14.89;100.00;101027.51;1638406;85;25803;-79
2021/08/24 03:20:17;;;;;;;7.53;6.67;;;;;;;14.89;100.00;101037.78;1668320;85;26584;-79
2021/08/24 03:22:46;;;;;;;11.35;7.10;;;;;;;14.87;100.00;101033.63;1640404;85;25388;-78
2021/08/24 03:25:14;;;;;;;7.95;6.50;;;;;;;14.86;100.00;101038.21;1672691;85;27466;-78
2021/08/24 03:27:45;;;;;;;9.40;6.42;;;;;;;14.85;100.00;101040.58;1667482;85;25915;-79
2021/08/24 03:30:16;;;;;;;9.45;7.17;;;;;;;14.86;100.00;101041.42;1636047;85;25973;-79
2021/08/24 03:32:44;;;;;;;13.18;6.60;;;;;;;14.84;100.00;101044.30;1641440;85;26493;-78
2021/08/24 03:35:13;;;;;;;12.10;7.47;;;;;;;14.84;100.00;101044.30;1665354;84;25728;-78
2021/08/24 03:37:40;;;;;;;9.30;6.80;;;;;;;14.82;100.00;101036.93;1641143;85;27572;-78
2021/08/24 03:40:09;;;;;;;10.13;7.55;;;;;;;14.81;100.00;101040.68;1615376;84;25903;-78
2021/08/24 03:42:37;;;;;;;9.70;7.28;;;;;;;14.83;100.00;101044.52;1617508;85;25855;-78
2021/08/24 03:45:08;;;;;;;12.23;7.72;;;;;;;14.81;100.00;101047.42;1667228;85;25916;-77
2021/08/24 03:47:35;;;;;;;13.78;7.53;;;;;;;14.81;100.00;101049.28;1637520;85;26649;-79
2021/08/24 03:50:05;;;;;;;12.78;7.20;;;;;;;14.80;100.00;101056.53;1618690;85;27570;-78
2021/08/24 03:52:32;;;;;;;11.80;6.72;;;;;;;14.79;100.00;101054.05;1640764;85;25851;-78
2021/08/24 03:54:59;;;;;;;10.98;6.20;;;;;;;14.79;100.00;101052.19;1597642;85;26078;-78
2021/08/24 03:57:26;;;;;;;9.45;6.15;;;;;;;14.76;100.00;101051.23;1631159;85;25866;-78
2021/08/24 03:59:56;;;;;;;9.65;5.30;;;;;;;14.76;100.00;101052.58;1665273;84;25845;-78
2021/08/24 04:02:25;;;;;;;7.92;6.05;;;;;;;14.74;100.00;101045.72;1617212;85;27543;-78
2021/08/24 04:04:52;;;;;;;6.78;5.22;;;;;;;14.71;100.00;101045.64;1638799;85;25923;-79
2021/08/24 04:07:19;;;;;;;7.22;5.35;;;;;;;14.68;100.00;101048.22;1664099;85;26093;-78
2021/08/24 04:09:46;;;;;;;9.20;5.65;;;;;;;14.66;100.00;101040.84;1656023;85;26598;-78
2021/08/24 04:12:14;;;;;;;9.68;5.47;;;;;;;14.64;100.00;101047.47;1615353;85;26459;-79
2021/08/24 04:14:42;;;;;;;9.25;6.10;;;;;;;14.60;100.00;101045.70;1598856;85;26870;-79
2021/08/24 04:17:09;;;;;;;6.45;5.12;;;;;;;14.58;100.00;101050.98;1667746;85;25841;-78
2021/08/24 04:19:37;;;;;;;8.60;5.03;;;;;;;14.56;100.00;101049.00;1666842;85;26575;-79
2021/08/24 04:22:11;;;;;;;6.65;4.70;;;;;;;14.52;100.00;101049.91;1620097;85;25785;-78
2021/08/24 04:24:38;;;;;;;8.68;4.97;;;;;;;14.50;100.00;101060.56;1613102;85;25943;-79
2021/08/24 04:27:06;;;;;;;6.40;4.83;;;;;;;14.47;100.00;101063.17;1640208;85;28288;-78
2021/08/24 04:29:34;;;;;;;7.87;4.42;;;;;;;14.43;100.00;101059.22;1638174;85;26178;-78
2021/08/24 04:32:01;;;;;;;7.20;4.78;;;;;;;14.40;100.00;101075.78;1603397;85;25895;-78
2021/08/24 04:34:28;;;;;;;9.75;4.30;;;;;;;14.36;99.98;101066.94;1623703;85;25847;-79
2021/08/24 04:36:55;;;;;;;7.90;4.20;;;;;;;14.34;99.97;101077.09;1669777;85;25730;-79
2021/08/24 04:39:22;;;;;;;7.95;3.90;;;;;;;14.32;99.98;101068.38;1665485;85;28203;-79
2021/08/24 04:41:49;;;;;;;6.95;3.98;;;;;;;14.29;99.74;101074.15;1628736;85;25914;-78
2021/08/24 04:44:16;;;;;;;7.47;4.28;;;;;;;14.27;99.76;101068.94;1620251;85;25881;-78
2021/08/24 04:46:43;;;;;;;5.65;3.83;;;;;;;14.25;99.71;101079.59;1674193;85;25894;-77
2021/08/24 04:49:10;;;;;;;7.47;3.92;;;;;;;14.23;99.53;101076.27;1671075;85;25726;-78
2021/08/24 04:51:37;;;;;;;5.87;3.90;;;;;;;14.22;99.31;101080.01;1660314;84;27471;-78
2021/08/24 04:54:04;;;;;;;6.08;3.92;;;;;;;14.20;99.32;101078.03;1653224;84;26561;-78
2021/08/24 04:56:31;;;;;;;6.65;3.52;;;;;;;14.19;99.13;101076.35;1689072;84;25790;-79
2021/08/24 04:58:58;;;;;;;8.90;3.60;;;;;;;14.15;98.95;101073.23;1656731;84;26268;-78
2021/08/24 05:01:25;;;;;;;9.58;3.55;;;;;;;14.13;98.93;101074.45;1663798;84;25800;-78
2021/08/24 05:03:53;;;;;;;5.50;3.08;;;;;;;14.09;99.06;101071.84;1620930;84;27542;-79
2021/08/24 05:06:20;;;;;;;4.15;3.08;;;;;;;14.08;98.93;101073.70;1653736;84;25808;-79
2021/08/24 05:08:47;;;;;;;6.30;2.75;;;;;;;14.07;98.75;101071.21;1687910;84;26045;-78
2021/08/24 05:11:14;;;;;;;9.55;3.15;;;;;;;14.05;98.76;101067.88;1617488;85;25941;-79
2021/08/24 05:13:41;;;;;;;6.55;3.30;;;;;;;14.05;98.70;101072.73;1649186;84;25945;-78
2021/08/24 05:16:10;;;;;;;6.08;3.40;;;;;;;14.03;98.83;101073.45;1688986;84;27426;-78
2021/08/24 05:18:38;;;;;;;3.17;2.35;;;;;;;14.01;98.54;101074.16;1660809;84;25893;-78
2021/08/24 05:21:10;;;;;;;8.18;3.58;;;;;;;14.00;98.50;101077.91;1614541;84;25751;-78
2021/08/24 05:23:37;;;;;;;7.17;3.65;;;;;;;13.98;98.50;101075.08;1632922;84;25766;-78
2021/08/24 05:26:15;;;;;;;10.78;3.22;;;;;;;13.95;98.50;101076.30;1689025;83;25954;-79
2021/08/24 05:28:43;;;;;;;3.58;3.08;;;;;;;13.93;98.45;101079.20;1685429;83;27516;-78
2021/08/24 05:31:11;;;;;;;8.25;2.92;;;;;;;13.92;98.49;101080.75;1622302;84;25958;-78
2021/08/24 05:33:39;;;;;;;6.60;3.17;;;;;;;13.92;98.56;101084.25;1615107;84;25882;-78
2021/08/24 05:36:07;;;;;;;5.47;3.05;;;;;;;13.95;98.48;101088.42;1684180;84;25756;-78
2021/08/24 05:38:34;;;;;;;6.53;2.77;;;;;;;13.92;98.26;101096.38;1681715;84;26283;-79
2021/08/24 05:41:04;;;;;;;5.58;3.20;;;;;;;13.90;98.32;101092.20;1611546;84;27591;-78
2021/08/24 05:43:35;;;;;;;6.75;2.83;;;;;;;13.89;98.18;101095.44;1654381;83;25948;-79
2021/08/24 05:46:06;;;;;;;5.75;2.47;;;;;;;13.90;98.08;101100.28;1687125;84;26506;-78
2021/08/24 05:48:34;;;;;;;7.08;2.98;;;;;;;13.88;98.04;101105.88;1656851;84;26694;-79
2021/08/24 05:51:07;;;;;;;6.35;2.47;;;;;;;13.89;98.10;101102.67;1627304;84;25800;-78
2021/08/24 05:53:34;;;;;;;6.28;2.80;;;;;;;13.87;97.94;101102.88;1638570;84;28909;-79
2021/08/24 05:56:01;;;;;;;6.22;2.90;;;;;;;13.86;97.84;101103.90;1689419;84;25786;-79
2021/08/24 05:58:28;;;;;;;7.05;3.17;;;;;;;13.85;97.59;101110.33;1684526;83;26265;-77
2021/08/24 06:00:55;;;;;;;5.85;3.05;;;;;;;13.85;97.43;101116.22;1632815;84;25765;-79
2021/08/24 06:03:22;;;;;;;6.37;2.80;;;;;;;13.83;97.40;101121.81;1655365;84;25974;-78
2021/08/24 06:05:49;;;;;;;4.10;2.72;;;;;;;13.81;97.33;101125.18;1661611;84;27444;-77
2021/08/24 06:08:16;;;;;;;8.75;2.72;;;;;;;13.78;97.06;101124.24;1691051;84;25834;-78
2021/08/24 06:10:43;;;;;;;4.92;2.75;;;;;;;13.78;96.82;101132.32;1616707;84;25810;-78
2021/08/24 06:13:10;;;;;;;4.72;2.40;;;;;;;13.77;96.73;101135.22;1617314;84;25899;-78
2021/08/24 06:15:37;;;;;;;4.05;2.45;;;;;;;13.76;96.76;101136.23;1661711;84;25935;-79
2021/08/24 06:18:05;;;;;;;3.25;2.30;;;;;;;13.75;96.64;101135.92;1688960;84;27432;-78
2021/08/24 06:20:32;;;;;;;6.47;2.65;;;;;;;13.74;96.62;101141.82;1657298;84;25934;-78
2021/08/24 06:22:59;;;;;;;4.58;2.62;;;;;;;13.72;96.46;101145.73;1609811;84;25900;-78
2021/08/24 06:25:26;;;;;;;6.72;2.60;;;;;;;13.71;96.47;101142.19;1659309;84;26908;-78
2021/08/24 06:27:53;;;;;;;6.33;2.62;;;;;;;13.70;96.39;101145.92;1687960;84;25762;-78
2021/08/24 06:30:21;;;;;;;5.40;2.87;;;;;;;13.69;96.54;101139.37;1654847;84;27564;-78
2021/08/24 06:32:53;;;;;;;4.45;2.50;;;;;;;13.69;96.54;101144.75;1656318;84;25790;-79
2021/08/24 06:35:24;;;;;;;4.92;2.80;;;;;;;13.69;96.73;101153.67;1688243;84;25850;-78
2021/08/24 06:37:51;;;;;;;8.60;2.98;;;;;;;13.69;96.68;101146.10;1658814;84;26494;-78
2021/08/24 06:40:19;;;;;;;3.45;2.42;;;;;;;13.70;96.79;101145.92;1632538;85;25839;-79
2021/08/24 06:42:50;;;;;;;6.28;2.37;;;;;;;13.71;96.72;101148.08;1654289;84;27430;-79
2021/08/24 06:45:22;;;;;;;8.15;2.67;;;;;;;13.72;96.69;101151.11;1690401;84;26466;-79
2021/08/24 06:47:50;;;;;;;6.65;2.80;;;;;;;13.73;96.74;101151.41;1689795;83;25945;-79
2021/08/24 06:50:18;;;;;;;4.90;2.75;;;;;;;13.73;96.58;101148.21;1661086;84;25834;-79
2021/08/24 06:52:45;;;;;;;6.50;2.62;;;;;;;13.73;96.56;101146.03;1632785;84;26410;-79
2021/08/24 06:55:13;;;;;;;7.28;2.40;;;;;;;13.73;96.40;101154.10;1659804;85;27582;-79
2021/08/24 06:57:41;;;;;;;5.65;3.08;;;;;;;13.73;96.33;101153.59;1677357;84;26613;-79
2021/08/24 07:00:17;;;;;;;6.22;2.52;;;;;;;13.76;96.24;101149.69;1624985;85;26088;-79
2021/08/24 07:02:44;;;;;;;3.33;1.92;;;;;;;13.78;96.09;101151.17;1641223;85;26442;-79
2021/08/24 07:05:13;;;;;;;3.80;2.25;;;;;;;13.81;96.21;101153.45;1647684;85;25839;-78
2021/08/24 07:07:41;;;;;;;6.05;2.70;;;;;;;13.86;95.77;101163.14;1638725;85;28245;-79
2021/08/24 07:10:11;;;;;;;6.50;2.70;;;;;;;13.90;95.98;101165.77;1648221;85;25858;-80
2021/08/24 07:12:40;;;;;;;5.53;2.58;;;;;;;13.96;95.97;101167.38;1637150;85;25327;-79
2021/08/24 07:15:10;;;;;;;7.22;2.52;;;;;;;14.00;95.97;101164.09;1658301;85;25894;-78
2021/08/24 07:17:38;;;;;;;2.52;2.00;;;;;;;14.04;95.77;101164.02;1670664;84;25975;-83
2021/08/24 07:20:09;;;;;;;5.12;2.27;;;;;;;14.09;95.89;101168.83;1624599;84;27585;-78
2021/08/24 07:22:37;;;;;;;4.15;2.50;;;;;;;14.11;95.11;101173.00;1661556;84;25895;-79
2021/08/24 07:25:11;;;;;;;5.37;2.30;;;;;;;14.14;95.63;101175.78;1637229;84;25971;-78
2021/08/24 07:27:39;;;;;;;4.20;1.90;;;;;;;14.15;94.58;101172.08;1658258;83;26942;-79
2021/08/24 07:30:07;;;;;;;4.55;2.15;;;;;;;14.15;94.79;101179.66;1655119;84;26709;-79
2021/08/24 07:32:35;;;;;;;5.17;2.00;;;;;;;14.19;94.64;101181.43;1655724;84;27480;-79
2021/08/24 07:35:05;;;;;;;4.05;2.00;;;;;;;14.22;94.36;101178.36;1676514;83;25787;-79
2021/08/24 07:37:32;;;;;;;3.80;1.80;;;;;;;14.24;94.05;101175.75;1662730;84;25936;-79
2021/08/24 07:39:59;;;;;;;6.83;1.90;;;;;;;14.27;94.25;101179.42;1658646;84;26591;-79
2021/08/24 07:42:26;;;;;;;3.00;1.80;;;;;;;14.30;93.71;101184.97;1655936;83;26292;-79
2021/08/24 07:44:53;;;;;;;3.25;1.72;;;;;;;14.31;93.04;101187.45;1636853;83;27522;-79
2021/08/24 07:47:20;;;;;;;4.00;2.17;;;;;;;14.33;93.16;101188.09;1681796;83;25785;-79
2021/08/24 07:49:47;;;;;;;3.62;1.80;;;;;;;14.36;92.69;101188.22;1657329;84;25858;-79
2021/08/24 07:52:15;;;;;;;3.45;2.00;;;;;;;14.39;92.73;101191.34;1656000;84;26700;-79
2021/08/24 07:54:42;;;;;;;6.50;1.95;;;;;;;14.44;92.85;101191.59;1639889;84;25764;-78
2021/08/24 07:57:09;;;;;;;3.27;1.85;;;;;;;14.48;90.93;101189.33;1654319;85;28121;-79
2021/08/24 07:59:36;;;;;;;5.22;2.22;;;;;;;14.52;92.26;101195.47;1637319;84;25838;-78
2021/08/24 08:02:04;;;;;;;5.78;1.77;;;;;;;14.58;92.12;101199.27;1650864;84;25371;-79
2021/08/24 08:04:31;;;;;;;7.08;2.35;;;;;;;14.63;91.62;101197.62;1634176;84;26722;-79
2021/08/24 08:06:58;;;;;;;4.17;1.80;;;;;;;14.65;90.34;101203.65;1683499;83;25527;-79
2021/08/24 08:09:25;;;;;;;4.67;1.77;;;;;;;14.68;90.48;101211.36;1681213;83;28162;-80
2021/08/24 08:11:54;;;;;;;7.67;1.77;;;;;;;14.71;89.88;101196.65;1637224;85;26240;-79
2021/08/24 08:14:21;;;;;;;5.05;1.85;;;;;;;14.75;89.85;101205.16;1608122;86;25924;-79
2021/08/24 08:16:48;;;;;;;4.08;1.65;;;;;;;14.75;89.11;101211.39;1685839;84;25911;-79
2021/08/24 08:19:15;;;;;;;3.95;1.62;;;;;;;14.78;88.71;101210.17;1676636;83;25986;-79
2021/08/24 08:21:42;;;;;;;2.40;1.40;;;;;;;14.81;88.94;101207.89;1652899;84;27535;-79
2021/08/24 08:24:10;;;;;;;4.53;1.70;;;;;;;14.83;88.69;101213.08;1658499;83;26348;-79
2021/08/24 08:26:39;;;;;;;5.50;1.55;;;;;;;14.86;88.83;101212.70;1656489;84;25920;-79
2021/08/24 08:29:11;;;;;;;3.00;1.47;;;;;;;14.89;88.48;101209.58;1653894;84;25662;-79
2021/08/24 08:31:38;;;;;;;3.15;1.47;;;;;;;14.90;87.78;101213.95;1652249;84;25948;-79
2021/08/24 08:34:06;;;;;;;2.40;1.27;;;;;;;14.91;87.67;101212.40;1659004;84;28367;-79
2021/08/24 08:36:33;;;;;;;4.15;1.60;;;;;;;14.94;87.39;101223.31;1659103;84;26272;-79
2021/08/24 08:39:00;;;;;;;4.42;1.70;;;;;;;14.95;85.72;101220.41;1675078;84;26398;-79
2021/08/24 08:41:57;;;;;;;2.55;1.05;;;;;;;14.95;85.99;101218.25;1627792;84;25797;-79
2021/08/24 08:45:09;;;;;;;4.78;1.52;;;;;;;14.93;85.01;101218.42;1639714;85;26246;-79
2021/08/24 08:47:47;;;;;;;2.77;1.35;;;;;;;14.94;85.16;101227.36;1661708;85;27582;-79
2021/08/24 08:50:42;;;;;;;2.77;1.55;;;;;;;14.95;83.40;101231.73;1630768;85;25821;-79
2021/08/24 08:53:27;;;;;;;6.70;1.70;;;;;;;14.93;84.30;101227.02;1635297;85;26527;-79
2021/08/24 08:56:08;;;;;;;2.10;1.25;;;;;;;14.95;84.85;101233.89;1629956;85;26541;-79
2021/08/24 08:59:06;;;;;;;4.62;1.60;;;;;;;14.97;83.66;101235.88;1661152;85;25784;-79
2021/08/24 09:01:42;;;;;;;2.72;1.22;;;;;;;14.97;84.14;101241.27;1654413;85;28108;-79
2021/08/24 09:04:38;;;;;;;4.67;1.30;;;;;;;15.00;84.13;101240.88;1630164;85;25812;-80
2021/08/24 09:07:16;;;;;;;3.25;1.37;;;;;;;14.99;82.91;101245.95;1629777;85;25926;-79
2021/08/24 09:09:44;;;;;;;2.35;0.80;;;;;;;14.98;83.04;101243.45;1657150;85;25771;-78
2021/08/24 09:12:12;;;;;;;3.20;1.07;;;;;;;14.97;82.05;101252.06;1613303;85;25780;-78
2021/08/24 09:14:45;;;;;;;1.90;1.05;;;;;;;14.98;82.51;101253.74;1617778;85;27574;-79
2021/08/24 09:17:29;;;;;;;3.75;1.35;;;;;;;15.00;83.12;101242.73;1659173;85;25752;-78
2021/08/24 09:20:10;;;;;;;1.27;1.00;;;;;;;15.02;81.70;101243.37;1652366;85;26359;-79
2021/08/24 09:22:40;;;;;;;2.22;1.00;;;;;;;15.04;81.62;101249.40;1651551;84;26006;-79
2021/08/24 09:25:15;;;;;;;2.10;1.20;;;;;;;15.04;80.96;101248.89;1614299;86;25895;-79
2021/08/24 09:27:53;;;;;;;3.55;0.85;;;;;;;15.06;80.32;101249.52;1631275;86;27495;-79
2021/08/24 09:30:21;;;;;;;2.20;1.00;;;;;;;15.08;80.51;101245.27;1657502;83;25929;-79
2021/08/24 09:32:48;;;;;;;5.08;1.30;;;;;;;15.11;80.67;101250.27;1640841;83;25790;-78
2021/08/24 09:35:32;;;;;;;1.92;1.05;;;;;;;15.11;79.47;101253.81;1647612;84;25921;-78
2021/08/24 09:38:14;;;;;;;3.15;1.10;;;;;;;15.12;79.94;101254.11;1655082;84;25778;-79
2021/08/24 09:41:00;;;;;;;3.65;1.60;;;;;;;15.14;79.11;101253.39;1679287;84;27461;-79
2021/08/24 09:43:37;;;;;;;4.53;1.30;;;;;;;15.18;79.39;101257.89;1660173;84;25824;-78
2021/08/24 09:46:19;;;;;;;2.02;1.20;;;;;;;15.22;79.32;101263.20;1659960;84;26315;-78
2021/08/24 09:49:25;;;;;;;1.50;1.30;;;;;;;15.26;78.09;101257.71;1616570;85;26418;-78
2021/08/24 09:52:02;;;;;;;2.62;1.27;;;;;;;15.29;78.92;101259.48;1570735;89;26731;-78
2021/08/24 09:54:43;;;;;;;2.98;1.00;;;;;;;15.34;78.97;101258.88;1615166;86;27386;-78
2021/08/24 09:57:19;;;;;;;2.98;1.30;;;;;;;15.39;79.54;101255.91;1672199;84;25763;-78
2021/08/24 09:59:57;;;;;;;1.82;0.93;;;;;;;15.46;79.30;101260.53;1646552;85;25856;-77
2021/08/24 10:02:30;;;;;;;2.20;1.00;;;;;;;15.51;79.70;101264.27;1608391;85;26645;-78
2021/08/24 10:04:57;;;;;;;2.22;1.12;;;;;;;15.57;78.92;101266.70;1616264;85;25839;-78
2021/08/24 10:07:43;;;;;;;3.65;1.30;;;;;;;15.60;78.41;101271.16;1619771;85;27517;-78
2021/08/24 10:10:32;;;;;;;1.70;1.05;;;;;;;15.65;79.06;101268.70;1637528;84;25860;-79
2021/08/24 10:13:04;;;;;;;2.25;1.20;;;;;;;15.72;79.54;101270.87;1682967;84;25940;-80
2021/08/24 10:15:37;;;;;;;5.92;1.20;;;;;;;15.80;78.93;101267.98;1657107;84;25846;-80
2021/08/24 10:18:24;;;;;;;1.05;0.90;;;;;;;15.86;78.88;101270.41;1643535;84;26638;-80
2021/08/24 10:21:05;;;;;;;4.65;1.37;;;;;;;15.89;77.81;101260.52;1696065;83;27636;-80
2021/08/24 10:23:38;;;;;;;5.37;0.93;;;;;;;15.89;77.49;101263.22;1672303;84;43787;-80
2021/08/24 10:26:09;;;;;;;3.47;0.95;;;;;;;15.88;75.93;101253.47;1699497;83;26299;-80
2021/08/24 10:28:42;;;;;;;2.27;0.90;;;;;;;15.86;76.78;101255.03;1648409;85;25759;-81
2021/08/24 10:31:29;;;;;;;1.60;1.20;;;;;;;15.90;75.03;101270.30;1669112;84;26062;-80
2021/08/24 10:34:11;;;;;;;3.15;0.95;;;;;;;15.91;75.72;101278.19;1655866;84;28267;-80
2021/08/24 10:36:47;;;;;;;1.55;1.02;;;;;;;15.91;76.21;101268.73;1650114;85;26003;-80
2021/08/24 10:39:28;;;;;;;1.50;1.12;;;;;;;15.93;75.68;101260.45;1631925;85;26835;-80
2021/08/24 10:42:20;;;;;;;1.25;0.70;;;;;;;15.96;76.59;101274.88;1677228;84;25961;-80
2021/08/24 10:44:55;;;;;;;3.27;0.90;;;;;;;16.01;76.69;101271.89;1664848;84;25774;-80
2021/08/24 10:47:46;;;;;;;1.52;0.93;;;;;;;16.03;76.18;101272.52;1670924;84;27517;-79
2021/08/24 10:50:26;;;;;;;1.50;1.10;;;;;;;16.06;76.05;101270.73;1654550;85;25670;-80
2021/08/24 10:53:07;;;;;;;2.12;1.25;;;;;;;16.11;76.20;101275.02;1677134;84;26103;-79
2021/08/24 10:55:40;;;;;;;2.30;0.90;;;;;;;16.15;77.25;101276.27;1662807;85;26470;-80
2021/08/24 10:58:29;;;;;;;2.85;0.90;;;;;;;16.18;75.96;101260.16;1669460;84;25814;-80
2021/08/24 11:01:29;;;;;;;3.70;1.15;;;;;;;16.20;76.16;101268.89;1650675;85;27441;-81
2021/08/24 11:04:30;;;;;;;3.62;1.10;;;;;;;16.23;76.29;101272.00;1665671;84;25859;-81
2021/08/24 11:07:29;;;;;;;1.77;0.82;;;;;;;16.28;75.70;101273.25;1656762;85;25459;-81
2021/08/24 11:10:18;;;;;;;3.22;1.30;;;;;;;16.30;75.19;101276.57;1653207;84;26520;-80
2021/08/24 11:12:53;;;;;;;2.98;1.00;;;;;;;16.31;74.63;101287.71;1673333;84;26404;-79
2021/08/24 11:15:41;;;;;;;2.12;0.90;;;;;;;16.33;74.51;101281.06;1649514;85;27500;-80
2021/08/24 11:18:34;;;;;;;3.75;0.80;;;;;;;16.35;74.78;101278.98;1674316;84;25787;-80
2021/08/24 11:21:34;;;;;;;3.02;1.10;;;;;;;16.38;74.33;101279.91;1618809;84;25830;-80
2021/08/24 11:24:27;;;;;;;3.47;1.20;;;;;;;16.44;73.21;101287.20;1661746;85;26404;-80
2021/08/24 11:27:18;;;;;;;4.25;0.82;;;;;;;16.47;74.91;101287.28;1579289;85;26088;-80
2021/08/24 11:29:51;;;;;;;3.92;1.25;;;;;;;16.48;71.43;101284.39;1665698;84;27527;-80
2021/08/24 11:32:39;;;;;;;5.17;1.15;;;;;;;16.47;71.48;101298.94;1651549;85;26049;-80
2021/08/24 11:35:26;;;;;;;1.37;1.00;;;;;;;16.46;72.13;101297.80;1670079;84;25732;-80
2021/08/24 11:38:04;;;;;;;2.08;1.02;;;;;;;16.47;71.61;101306.22;1650613;85;25938;-80
2021/08/24 11:40:51;;;;;;;2.77;1.30;;;;;;;16.50;71.43;101299.08;1643752;84;25742;-80
2021/08/24 11:43:23;;;;;;;5.33;1.35;;;;;;;16.52;72.52;101300.55;1646852;84;27564;-80
2021/08/24 11:45:53;;;;;;;4.37;1.20;;;;;;;16.56;71.32;101307.71;1670358;84;25912;-80
2021/08/24 11:48:32;;;;;;;2.75;1.12;;;;;;;16.60;71.56;101303.03;1675836;84;25837;-80
2021/08/24 11:51:22;;;;;;;2.67;1.22;;;;;;;16.64;72.42;101309.69;1653473;84;26248;-81
2021/08/24 11:54:13;;;;;;;3.60;1.67;;;;;;;16.67;68.66;101305.73;1675556;84;26009;-80